createdAt,value
2019-04-16T00:02:18.483Z,28.40
2019-04-16T00:04:53.353Z,28.40
2019-04-16T00:07:41.526Z,28.40
2019-04-16T00:10:20.762Z,28.40
2019-04-16T00:12:56.203Z,28.40
2019-04-16T00:15:29.060Z,28.40
2019-04-16T00:18:01.781Z,28.40
2019-04-16T00:20:37.958Z,28.40
2019-04-16T00:23:26.388Z,28.40
2019-04-16T00:25:58.159Z,28.50
2019-04-16T00:28:33.353Z,28.50
2019-04-16T00:31:06.169Z,28.50
2019-04-16T00:33:39.388Z,28.60
2019-04-16T00:36:15.383Z,28.60
2019-04-16T00:38:47.772Z,28.60
2019-04-16T00:41:20.289Z,28.60
2019-04-16T00:43:52.880Z,28.60
2019-04-16T00:46:25.568Z,28.70
2019-04-16T00:48:58.595Z,28.70
2019-04-16T00:51:30.979Z,28.80
2019-04-16T00:54:09.888Z,28.90
2019-04-16T00:56:39.057Z,28.90
2019-04-16T00:59:10.842Z,29.00
2019-04-16T01:01:42.410Z,29.00
2019-04-16T01:04:14.868Z,29.10
2019-04-16T01:06:47.430Z,29.20
2019-04-16T01:09:19.937Z,29.20
2019-04-16T01:11:52.516Z,29.30
2019-04-16T01:14:27.447Z,29.30
2019-04-16T01:17:03.843Z,29.40
2019-04-16T01:19:33.972Z,29.50
2019-04-16T01:22:06.627Z,29.50
2019-04-16T01:24:40.269Z,29.70
2019-04-16T01:27:11.515Z,29.80
2019-04-16T01:29:45.016Z,29.80
2019-04-16T01:32:19.151Z,29.90
2019-04-16T01:35:11.786Z,30.00
2019-04-16T01:38:04.445Z,30.00
2019-04-16T01:40:40.574Z,30.10
2019-04-16T01:43:11.866Z,30.20
2019-04-16T01:45:44.249Z,30.30
2019-04-16T01:48:18.573Z,30.30
2019-04-16T01:50:51.199Z,30.40
2019-04-16T01:53:23.028Z,30.50
2019-04-16T01:55:57.018Z,30.60
2019-04-16T01:58:33.854Z,30.60
2019-04-16T02:01:07.945Z,30.70
2019-04-16T02:03:41.244Z,30.80
2019-04-16T02:06:13.737Z,30.90
2019-04-16T02:08:46.265Z,30.90
2019-04-16T02:11:21.953Z,31.00
2019-04-16T02:13:53.760Z,31.10
2019-04-16T02:16:26.005Z,31.20
2019-04-16T02:19:00.759Z,31.30
2019-04-16T02:21:32.103Z,31.40
2019-04-16T02:24:07.673Z,31.50
2019-04-16T02:26:42.143Z,31.60
2019-04-16T02:29:14.726Z,31.60
2019-04-16T02:31:51.287Z,31.70
2019-04-16T02:34:21.917Z,31.70
2019-04-16T02:37:00.894Z,31.80
2019-04-16T02:39:46.976Z,31.90
2019-04-16T02:44:38.622Z,32.10
2019-04-16T02:47:11.395Z,32.10
2019-04-16T02:49:43.824Z,32.30
2019-04-16T02:52:19.209Z,32.40
2019-04-16T02:54:54.813Z,32.50
2019-04-16T02:57:30.533Z,32.70
2019-04-16T03:00:05.116Z,32.70
2019-04-16T03:02:40.674Z,32.70
2019-04-16T03:05:17.518Z,32.70
2019-04-16T03:07:51.456Z,32.70
2019-04-16T03:10:25.980Z,32.70
2019-04-16T03:13:00.826Z,32.80
2019-04-16T03:15:49.712Z,32.80
2019-04-16T03:18:26.196Z,32.80
2019-04-16T03:20:59.011Z,32.90
2019-04-16T03:23:36.487Z,32.90
2019-04-16T03:26:05.484Z,33.00
2019-04-16T03:28:42.726Z,33.00
2019-04-16T03:31:20.185Z,33.10
2019-04-16T03:33:50.227Z,33.10
2019-04-16T03:36:26.586Z,33.30
2019-04-16T03:38:56.759Z,33.50
2019-04-16T03:41:29.237Z,33.70
2019-04-16T03:44:04.136Z,33.90
2019-04-16T03:46:34.666Z,34.00
2019-04-16T03:49:09.981Z,34.20
2019-04-16T03:51:42.617Z,34.30
2019-04-16T03:54:14.590Z,34.40
2019-04-16T03:56:48.555Z,34.50
2019-04-16T03:59:21.237Z,34.60
2019-04-16T04:01:53.883Z,34.70
2019-04-16T04:04:29.005Z,34.80
2019-04-16T04:06:59.508Z,34.90
2019-04-16T04:09:32.512Z,35.00
2019-04-16T04:12:06.204Z,35.20
2019-04-16T04:14:38.588Z,35.40
2019-04-16T04:17:11.038Z,35.60
2019-04-16T04:19:43.480Z,35.70
2019-04-16T04:22:17.025Z,35.70
2019-04-16T04:24:49.389Z,35.80
2019-04-16T04:27:24.152Z,35.90
2019-04-16T04:29:57.265Z,36.00
2019-04-16T04:32:35.365Z,36.10
2019-04-16T04:35:05.488Z,36.20
2019-04-16T04:37:40.153Z,36.30
2019-04-16T04:40:15.854Z,36.30
2019-04-16T04:42:47.970Z,36.40
2019-04-16T04:45:20.767Z,36.40
2019-04-16T04:47:53.217Z,36.30
2019-04-16T04:50:28.720Z,36.30
2019-04-16T04:53:02.297Z,36.20
2019-04-16T04:55:35.058Z,36.30
2019-04-16T04:58:07.567Z,36.40
2019-04-16T05:00:41.124Z,36.60
2019-04-16T05:03:15.879Z,36.90
2019-04-16T05:05:50.517Z,37.10
2019-04-16T05:08:22.059Z,37.40
2019-04-16T05:10:59.784Z,37.50
2019-04-16T05:13:27.810Z,37.60
2019-04-16T05:16:02.011Z,37.80
2019-04-16T05:18:34.790Z,37.90
2019-04-16T05:21:07.423Z,37.80
2019-04-16T05:23:40.195Z,37.70
2019-04-16T05:26:13.981Z,37.80
2019-04-16T05:28:47.445Z,37.90
2019-04-16T05:31:24.384Z,38.00
2019-04-16T05:33:54.201Z,38.10
2019-04-16T05:36:30.033Z,38.10
2019-04-16T05:39:05.863Z,38.10
2019-04-16T05:41:40.261Z,38.10
2019-04-16T05:44:13.876Z,38.20
2019-04-16T05:46:47.940Z,38.30
2019-04-16T05:49:24.609Z,38.50
2019-04-16T05:51:53.862Z,38.70
2019-04-16T05:54:34.843Z,38.90
2019-04-16T05:57:11.061Z,39.00
2019-04-16T05:59:45.277Z,39.10
2019-04-16T06:02:19.952Z,39.10
2019-04-16T06:04:55.571Z,39.10
2019-04-16T06:07:26.235Z,39.00
2019-04-16T06:09:58.768Z,38.80
2019-04-16T06:12:39.884Z,38.80
2019-04-16T06:15:28.184Z,38.80
2019-04-16T06:18:21.265Z,38.90
2019-04-16T06:20:57.381Z,38.90
2019-04-16T06:23:32.669Z,39.00
2019-04-16T06:26:06.867Z,39.10
2019-04-16T06:28:42.592Z,39.10
2019-04-16T06:31:33.360Z,39.20
2019-04-16T06:34:09.203Z,39.20
2019-04-16T06:36:50.648Z,39.30
2019-04-16T06:39:42.637Z,39.40
2019-04-16T06:42:21.721Z,39.40
2019-04-16T06:44:54.836Z,39.40
2019-04-16T06:47:31.854Z,39.30
2019-04-16T06:50:31.213Z,39.30
2019-04-16T06:53:13.564Z,39.40
2019-04-16T06:55:51.142Z,39.40
2019-04-16T06:58:27.965Z,39.30
2019-04-16T07:01:10.604Z,39.30
2019-04-16T07:03:49.980Z,39.40
2019-04-16T07:06:40.186Z,39.50
2019-04-16T07:09:15.623Z,39.50
2019-04-16T07:11:54.542Z,39.50
2019-04-16T07:14:26.711Z,39.50
2019-04-16T07:17:00.139Z,39.50
2019-04-16T07:19:33.589Z,39.40
2019-04-16T07:22:11.413Z,39.30
2019-04-16T07:24:44.314Z,39.30
2019-04-16T07:27:20.201Z,39.40
2019-04-16T07:29:54.631Z,39.60
2019-04-16T07:32:45.377Z,39.80
2019-04-16T07:35:27.172Z,39.90
2019-04-16T07:38:16.941Z,40.00
2019-04-16T07:41:10.972Z,40.00
2019-04-16T07:43:58.331Z,40.00
2019-04-16T07:46:32.790Z,40.10
2019-04-16T07:49:08.653Z,40.10
2019-04-16T07:51:57.909Z,40.20
2019-04-16T07:54:49.767Z,40.30
2019-04-16T07:57:22.563Z,40.50
2019-04-16T07:59:54.359Z,40.50
2019-04-16T08:02:29.137Z,40.60
2019-04-16T08:05:07.450Z,40.50
2019-04-16T08:07:39.264Z,40.40
2019-04-16T08:10:16.876Z,40.20
2019-04-16T08:12:50.603Z,40.20
2019-04-16T08:15:23.902Z,40.20
2019-04-16T08:17:57.910Z,40.00
2019-04-16T08:20:33.183Z,40.00
2019-04-16T08:23:07.160Z,40.00
2019-04-16T08:25:41.527Z,40.00
2019-04-16T08:28:15.954Z,40.00
2019-04-16T08:30:50.016Z,40.10
2019-04-16T08:33:28.286Z,40.20
2019-04-16T08:35:59.040Z,40.00
2019-04-16T08:38:34.888Z,40.00
2019-04-16T08:41:07.536Z,39.90
2019-04-16T08:43:41.085Z,40.00
2019-04-16T08:46:16.012Z,40.00
2019-04-16T08:48:54.278Z,40.00
2019-04-16T08:51:30.686Z,40.00
2019-04-16T08:54:06.299Z,39.90
2019-04-16T08:56:40.211Z,39.90
2019-04-16T08:59:15.018Z,39.70
2019-04-16T09:01:47.848Z,39.70
2019-04-16T09:04:22.752Z,39.50
2019-04-16T09:07:09.679Z,39.50
2019-04-16T09:09:32.133Z,39.30
2019-04-16T09:12:29.177Z,39.20
2019-04-16T09:15:00.016Z,39.20
2019-04-16T09:17:33.918Z,39.10
2019-04-16T09:20:17.103Z,39.10
2019-04-16T09:22:53.675Z,39.00
2019-04-16T09:25:26.875Z,39.00
2019-04-16T09:28:13.154Z,39.00
2019-04-16T09:30:46.651Z,39.00
2019-04-16T09:33:20.981Z,39.00
2019-04-16T09:36:12.481Z,39.00
2019-04-16T09:38:54.304Z,39.00
2019-04-16T09:41:37.094Z,38.90
2019-04-16T09:44:10.426Z,38.90
2019-04-16T09:46:51.166Z,38.80
2019-04-16T09:49:23.277Z,38.80
2019-04-16T09:51:55.481Z,38.70
2019-04-16T09:54:29.660Z,38.70
2019-04-16T09:57:02.367Z,38.50
2019-04-16T09:59:36.225Z,38.50
2019-04-16T10:02:10.401Z,38.40
2019-04-16T10:04:43.205Z,38.30
2019-04-16T10:07:16.027Z,38.30
2019-04-16T10:09:51.324Z,38.20
2019-04-16T10:12:25.686Z,38.10
2019-04-16T10:15:00.304Z,38.10
2019-04-16T10:17:31.707Z,38.00
2019-04-16T10:20:06.534Z,37.90
2019-04-16T10:22:39.525Z,37.80
2019-04-16T10:25:13.957Z,37.80
2019-04-16T10:27:49.864Z,37.80
2019-04-16T10:30:29.771Z,37.60
2019-04-16T10:33:05.961Z,37.60
2019-04-16T10:35:41.175Z,37.50
2019-04-16T10:38:17.142Z,37.40
2019-04-16T10:40:51.882Z,37.40
2019-04-16T10:43:43.868Z,37.30
2019-04-16T10:46:09.869Z,37.20
2019-04-16T10:48:46.882Z,37.20
2019-04-16T10:51:28.211Z,37.10
2019-04-16T10:54:19.223Z,37.00
2019-04-16T10:57:10.443Z,36.90
2019-04-16T11:00:03.690Z,36.80
2019-04-16T11:02:37.802Z,36.80
2019-04-16T11:05:28.382Z,36.70
2019-04-16T11:08:07.463Z,36.70
2019-04-16T11:10:40.184Z,36.60
2019-04-16T11:13:13.210Z,36.50
2019-04-16T11:15:46.171Z,36.50
2019-04-16T11:18:19.014Z,36.40
2019-04-16T11:20:52.908Z,36.30
2019-04-16T11:23:25.685Z,36.30
2019-04-16T11:25:58.537Z,36.20
2019-04-16T11:28:33.971Z,36.10
2019-04-16T11:31:16.450Z,36.10
2019-04-16T11:33:49.059Z,36.10
2019-04-16T11:36:21.634Z,36.00
2019-04-16T11:38:53.138Z,35.90
2019-04-16T11:41:27.815Z,35.90
2019-04-16T11:44:13.494Z,35.90
2019-04-16T11:46:39.393Z,35.80
2019-04-16T11:49:14.642Z,35.70
2019-04-16T11:51:56.393Z,35.70
2019-04-16T11:54:31.200Z,35.70
2019-04-16T11:57:03.839Z,35.60
2019-04-16T11:59:38.212Z,35.50
2019-04-16T12:02:12.083Z,35.50
2019-04-16T12:04:55.935Z,35.40
2019-04-16T12:07:24.114Z,35.40
2019-04-16T12:10:03.211Z,35.40
2019-04-16T12:12:37.094Z,35.30
2019-04-16T12:15:26.074Z,35.10
2019-04-16T12:18:04.699Z,35.00
2019-04-16T12:20:57.129Z,34.80
2019-04-16T12:23:47.021Z,34.80
2019-04-16T12:26:19.350Z,34.70
2019-04-16T12:28:52.183Z,34.60
2019-04-16T12:31:26.454Z,34.50
2019-04-16T12:34:01.387Z,34.40
2019-04-16T12:36:53.999Z,34.40
2019-04-16T12:39:35.993Z,34.30
2019-04-16T12:42:13.559Z,34.30
2019-04-16T12:45:03.977Z,34.20
2019-04-16T12:47:37.912Z,34.20
2019-04-16T12:50:16.703Z,34.20
2019-04-16T12:52:59.482Z,34.10
2019-04-16T12:55:43.317Z,34.00
2019-04-16T12:58:20.016Z,34.00
2019-04-16T13:00:53.404Z,33.90
2019-04-16T13:03:34.205Z,33.90
2019-04-16T13:06:26.965Z,33.80
2019-04-16T13:09:19.607Z,33.80
2019-04-16T13:11:54.716Z,33.70
2019-04-16T13:14:30.335Z,33.70
2019-04-16T13:17:29.192Z,33.60
2019-04-16T13:20:10.368Z,33.50
2019-04-16T13:22:44.084Z,33.50
2019-04-16T13:25:17.975Z,33.50
2019-04-16T13:27:51.689Z,33.40
2019-04-16T13:30:24.354Z,33.40
2019-04-16T13:32:57.136Z,33.40
2019-04-16T13:35:29.631Z,33.40
2019-04-16T13:38:08.016Z,33.40
2019-04-16T13:40:41.309Z,33.40
2019-04-16T13:43:12.905Z,33.40
2019-04-16T13:45:46.976Z,33.40
2019-04-16T13:48:21.222Z,33.40
2019-04-16T13:50:55.072Z,33.30
2019-04-16T13:53:32.985Z,33.40
2019-04-16T13:56:24.057Z,33.30
2019-04-16T13:59:07.150Z,33.30
2019-04-16T14:01:59.122Z,33.30
2019-04-16T14:04:36.739Z,33.30
2019-04-16T14:07:07.563Z,33.30
2019-04-16T14:09:44.117Z,33.20
2019-04-16T14:12:15.484Z,33.20
2019-04-16T14:14:49.474Z,33.20
2019-04-16T14:17:26.183Z,33.20
2019-04-16T14:19:58.816Z,33.20
2019-04-16T14:22:31.710Z,33.20
2019-04-16T14:25:04.160Z,33.20
2019-04-16T14:27:38.057Z,33.20
2019-04-16T14:30:33.490Z,33.20
2019-04-16T14:33:08.015Z,33.20
2019-04-16T14:35:41.614Z,33.10
2019-04-16T14:38:17.593Z,33.10
2019-04-16T14:40:50.590Z,33.10
2019-04-16T14:43:29.419Z,33.10
2019-04-16T14:46:01.740Z,33.10
2019-04-16T14:48:39.083Z,33.10
2019-04-16T14:51:11.891Z,33.10
2019-04-16T14:53:46.051Z,33.10
2019-04-16T14:56:36.489Z,33.10
2019-04-16T14:59:34.128Z,33.10
2019-04-16T15:02:03.192Z,33.00
2019-04-16T15:04:40.113Z,33.00
2019-04-16T15:07:18.798Z,33.00
2019-04-16T15:09:54.244Z,32.90
2019-04-16T15:12:48.142Z,32.90
2019-04-16T15:15:37.397Z,32.90
2019-04-16T15:18:29.998Z,32.90
2019-04-16T15:21:10.233Z,32.90
2019-04-16T15:23:42.550Z,32.90
2019-04-16T15:26:32.889Z,32.80
2019-04-16T15:29:07.026Z,32.80
2019-04-16T15:31:56.951Z,32.70
2019-04-16T15:34:33.227Z,32.70
2019-04-16T15:37:27.585Z,32.70
2019-04-16T15:40:00.710Z,32.70
2019-04-16T15:42:50.978Z,32.70
2019-04-16T15:45:28.924Z,32.70
2019-04-16T15:48:18.950Z,32.60
2019-04-16T15:51:14.809Z,32.50
2019-04-16T15:53:50.470Z,32.40
2019-04-16T15:56:39.884Z,32.30
2019-04-16T15:59:15.060Z,32.20
2019-04-16T16:02:07.962Z,32.20
2019-04-16T16:04:42.075Z,32.20
2019-04-16T16:07:17.124Z,32.20
2019-04-16T16:09:58.073Z,32.10
2019-04-16T16:12:30.061Z,32.00
2019-04-16T16:15:07.621Z,32.00
2019-04-16T16:17:39.404Z,31.90
2019-04-16T16:20:11.449Z,31.90
2019-04-16T16:22:44.423Z,31.90
2019-04-16T16:25:17.150Z,31.90
2019-04-16T16:27:49.522Z,31.90
2019-04-16T16:30:24.788Z,31.80
2019-04-16T16:32:59.207Z,31.80
2019-04-16T16:35:34.597Z,31.80
2019-04-16T16:38:11.159Z,31.80
2019-04-16T16:40:43.705Z,31.70
2019-04-16T16:43:15.548Z,31.70
2019-04-16T16:46:07.845Z,31.70
2019-04-16T16:48:40.934Z,31.80
2019-04-16T16:51:14.863Z,31.80
2019-04-16T16:54:02.501Z,31.80
2019-04-16T16:56:51.754Z,31.80
2019-04-16T16:59:28.732Z,31.80
2019-04-16T17:02:08.602Z,31.70
2019-04-16T17:04:38.897Z,31.80
2019-04-16T17:07:13.196Z,31.70
2019-04-16T17:09:47.192Z,31.60
2019-04-16T17:12:19.779Z,31.50
2019-04-16T17:14:51.318Z,31.50
2019-04-16T17:17:23.697Z,31.50
2019-04-16T17:20:00.018Z,31.40
2019-04-16T17:22:32.743Z,31.40
2019-04-16T17:25:04.628Z,31.40
2019-04-16T17:27:50.695Z,31.50
2019-04-16T17:30:12.215Z,31.50
2019-04-16T17:32:44.892Z,31.50
2019-04-16T17:35:16.570Z,31.50
2019-04-16T17:37:48.995Z,31.60
2019-04-16T17:40:28.978Z,31.60
2019-04-16T17:43:02.873Z,31.50
2019-04-16T17:45:42.893Z,31.50
2019-04-16T17:48:21.000Z,31.40
2019-04-16T17:51:02.838Z,31.40
2019-04-16T17:53:34.387Z,31.30
2019-04-16T17:56:13.947Z,31.30
2019-04-16T17:59:07.328Z,31.20
2019-04-16T18:01:58.142Z,31.20
2019-04-16T18:04:38.493Z,31.20
2019-04-16T18:07:30.490Z,31.20
2019-04-16T18:10:26.447Z,31.30
2019-04-16T18:13:00.795Z,31.30
2019-04-16T18:15:33.632Z,31.30
2019-04-16T18:18:07.537Z,31.30
2019-04-16T18:20:41.023Z,31.30
2019-04-16T18:23:15.702Z,31.30
2019-04-16T18:26:03.640Z,31.30
2019-04-16T18:28:53.909Z,31.30
2019-04-16T18:31:45.617Z,31.20
2019-04-16T18:34:40.272Z,31.20
2019-04-16T18:37:17.580Z,31.10
2019-04-16T18:40:07.974Z,31.10
2019-04-16T18:43:01.896Z,31.00
2019-04-16T18:45:36.030Z,31.00
2019-04-16T18:48:24.605Z,31.00
2019-04-16T18:50:59.934Z,30.90
2019-04-16T18:53:31.050Z,30.90
2019-04-16T18:56:03.674Z,30.90
2019-04-16T18:58:37.163Z,30.90
2019-04-16T19:01:11.784Z,30.90
2019-04-16T19:03:49.860Z,30.80
2019-04-16T19:06:23.095Z,30.80
2019-04-16T19:08:59.231Z,30.80
2019-04-16T19:11:30.803Z,30.80
2019-04-16T19:14:03.215Z,30.70
2019-04-16T19:16:34.734Z,30.70
2019-04-16T19:19:07.324Z,30.70
2019-04-16T19:21:42.335Z,30.60
2019-04-16T19:24:16.147Z,30.60
2019-04-16T19:26:53.618Z,30.60
2019-04-16T19:29:25.977Z,30.50
2019-04-16T19:31:58.943Z,30.50
2019-04-16T19:34:33.333Z,30.50
2019-04-16T19:37:05.801Z,30.50
2019-04-16T19:39:38.688Z,30.50
2019-04-16T19:42:11.675Z,30.40
2019-04-16T19:44:44.067Z,30.40
2019-04-16T19:47:18.059Z,30.40
2019-04-16T19:49:49.705Z,30.40
2019-04-16T19:52:21.114Z,30.40
2019-04-16T19:54:53.573Z,30.40
2019-04-16T19:57:25.368Z,30.40
2019-04-16T19:59:57.830Z,30.40
2019-04-16T20:02:32.956Z,30.40
2019-04-16T20:05:07.265Z,30.40
2019-04-16T20:07:38.758Z,30.40
2019-04-16T20:10:10.549Z,30.40
2019-04-16T20:12:43.106Z,30.50
2019-04-16T20:15:15.889Z,30.50
2019-04-16T20:17:48.433Z,30.50
2019-04-16T20:20:19.923Z,30.50
2019-04-16T20:22:51.425Z,30.60
2019-04-16T20:25:23.876Z,30.60
2019-04-16T20:27:55.336Z,30.50
2019-04-16T20:30:28.880Z,30.50
2019-04-16T20:33:00.602Z,30.40
2019-04-16T20:35:33.139Z,30.40
2019-04-16T20:38:06.541Z,30.40
2019-04-16T20:40:37.966Z,30.40
2019-04-16T20:43:10.273Z,30.40
2019-04-16T20:45:43.117Z,30.40
2019-04-16T20:48:17.236Z,30.30
2019-04-16T20:50:52.733Z,30.30
2019-04-16T20:53:22.489Z,30.30
2019-04-16T20:55:54.809Z,30.20
2019-04-16T20:58:30.661Z,30.20
2019-04-16T21:01:02.647Z,30.20
2019-04-16T21:03:33.925Z,30.10
2019-04-16T21:06:07.818Z,30.10
2019-04-16T21:08:39.881Z,30.10
2019-04-16T21:11:11.448Z,30.10
2019-04-16T21:13:42.952Z,30.00
2019-04-16T21:16:16.948Z,30.00
2019-04-16T21:18:48.413Z,30.00
2019-04-16T21:21:23.563Z,30.00
2019-04-16T21:23:53.944Z,29.90
2019-04-16T21:26:29.578Z,29.80
2019-04-16T21:29:03.626Z,29.80
2019-04-16T21:31:42.297Z,29.80
2019-04-16T21:34:24.220Z,29.80
2019-04-16T21:37:10.668Z,29.80
2019-04-16T21:39:47.083Z,29.70
2019-04-16T21:42:17.474Z,29.70
2019-04-16T21:44:48.974Z,29.60
2019-04-16T21:47:23.140Z,29.60
2019-04-16T21:49:52.902Z,29.60
2019-04-16T21:52:24.470Z,29.50
2019-04-16T21:54:56.024Z,29.50
2019-04-16T21:57:27.693Z,29.50
2019-04-16T21:59:59.425Z,29.50
2019-04-16T22:02:34.634Z,29.50
2019-04-16T22:05:06.916Z,29.50
2019-04-16T22:07:38.500Z,29.50
2019-04-16T22:10:10.128Z,29.60
2019-04-16T22:12:44.807Z,29.60
2019-04-16T22:15:15.704Z,29.70
2019-04-16T22:17:48.115Z,29.70
2019-04-16T22:20:20.788Z,29.70
2019-04-16T22:22:53.793Z,29.70
2019-04-16T22:25:26.893Z,29.80
2019-04-16T22:28:01.742Z,29.80
2019-04-16T22:30:36.608Z,29.80
2019-04-16T22:33:09.243Z,29.80
2019-04-16T22:35:40.916Z,29.80
2019-04-16T22:38:14.313Z,29.80
2019-04-16T22:41:04.532Z,29.80
2019-04-16T22:43:42.627Z,29.80
2019-04-16T22:46:31.919Z,29.80
2019-04-16T22:49:04.533Z,29.80
2019-04-16T22:51:39.771Z,29.80
2019-04-16T22:54:10.650Z,29.80
2019-04-16T22:56:43.287Z,29.80
2019-04-16T22:59:14.311Z,29.80
2019-04-16T23:01:48.110Z,29.80
2019-04-16T23:04:22.821Z,29.70
2019-04-16T23:06:55.088Z,29.70
2019-04-16T23:09:28.050Z,29.70
2019-04-16T23:11:59.735Z,29.70
2019-04-16T23:14:31.700Z,29.70
2019-04-16T23:17:03.956Z,29.70
2019-04-16T23:19:36.305Z,29.60
2019-04-16T23:22:14.050Z,29.60
2019-04-16T23:24:42.873Z,29.60
2019-04-16T23:27:16.033Z,29.60
2019-04-16T23:29:48.219Z,29.60
2019-04-16T23:32:21.372Z,29.60
2019-04-16T23:34:55.749Z,29.70
2019-04-16T23:37:27.434Z,29.70
2019-04-16T23:39:58.887Z,29.70
2019-04-16T23:42:32.479Z,29.70
2019-04-16T23:45:09.470Z,29.70
2019-04-16T23:48:00.302Z,29.80
2019-04-16T23:50:44.297Z,29.80
2019-04-16T23:53:24.740Z,29.90
2019-04-16T23:55:58.637Z,29.90
2019-04-16T23:58:32.662Z,29.90
